sensor_id;sensor_type;location;lat;lon;timestamp;temperature;humidity
47336;DHT22;33068;51.990;5.926;2023-02-18T00:01:52;9.80;99.90
47336;DHT22;33068;51.990;5.926;2023-02-18T00:04:19;9.80;99.90
47336;DHT22;33068;51.990;5.926;2023-02-18T00:06:46;9.80;99.90
47336;DHT22;33068;51.990;5.926;2023-02-18T00:09:16;9.80;99.90
47336;DHT22;33068;51.990;5.926;2023-02-18T00:11:43;9.80;99.90
47336;DHT22;33068;51.990;5.926;2023-02-18T00:14:14;9.80;99.90
47336;DHT22;33068;51.990;5.926;2023-02-18T00:16:46;9.70;99.90
47336;DHT22;33068;51.990;5.926;2023-02-18T00:19:15;9.80;99.90
47336;DHT22;33068;51.990;5.926;2023-02-18T00:21:43;9.70;99.90
47336;DHT22;33068;51.990;5.926;2023-02-18T00:24:13;9.70;99.90
47336;DHT22;33068;51.990;5.926;2023-02-18T00:26:41;9.70;99.90
47336;DHT22;33068;51.990;5.926;2023-02-18T00:29:09;9.60;99.90
47336;DHT22;33068;51.990;5.926;2023-02-18T00:31:37;9.70;99.90
47336;DHT22;33068;51.990;5.926;2023-02-18T00:34:06;9.70;99.90
47336;DHT22;33068;51.990;5.926;2023-02-18T00:36:34;9.60;99.90
47336;DHT22;33068;51.990;5.926;2023-02-18T00:39:03;9.60;99.90
47336;DHT22;33068;51.990;5.926;2023-02-18T00:41:32;9.60;99.90
47336;DHT22;33068;51.990;5.926;2023-02-18T00:44:00;9.60;99.90
47336;DHT22;33068;51.990;5.926;2023-02-18T00:46:27;9.60;99.90
47336;DHT22;33068;51.990;5.926;2023-02-18T00:48:55;9.60;99.90
47336;DHT22;33068;51.990;5.926;2023-02-18T00:51:27;9.60;99.90
47336;DHT22;33068;51.990;5.926;2023-02-18T00:53:54;9.60;99.90
47336;DHT22;33068;51.990;5.926;2023-02-18T00:56:22;9.60;99.90
47336;DHT22;33068;51.990;5.926;2023-02-18T00:58:49;9.60;99.90
47336;DHT22;33068;51.990;5.926;2023-02-18T01:01:18;9.60;99.90
47336;DHT22;33068;51.990;5.926;2023-02-18T01:03:45;9.60;99.90
47336;DHT22;33068;51.990;5.926;2023-02-18T01:06:14;9.60;99.90
47336;DHT22;33068;51.990;5.926;2023-02-18T01:08:42;9.60;99.90
47336;DHT22;33068;51.990;5.926;2023-02-18T01:11:12;9.60;99.90
47336;DHT22;33068;51.990;5.926;2023-02-18T01:13:40;9.60;99.90
47336;DHT22;33068;51.990;5.926;2023-02-18T01:16:10;9.60;99.90
47336;DHT22;33068;51.990;5.926;2023-02-18T01:18:38;9.70;99.90
47336;DHT22;33068;51.990;5.926;2023-02-18T01:21:06;9.60;99.90
47336;DHT22;33068;51.990;5.926;2023-02-18T01:23:35;9.60;99.90
47336;DHT22;33068;51.990;5.926;2023-02-18T01:26:07;9.60;99.90
47336;DHT22;33068;51.990;5.926;2023-02-18T01:28:37;9.60;99.90
47336;DHT22;33068;51.990;5.926;2023-02-18T01:31:09;9.60;99.90
47336;DHT22;33068;51.990;5.926;2023-02-18T01:33:37;9.60;99.90
47336;DHT22;33068;51.990;5.926;2023-02-18T01:36:07;9.60;99.90
47336;DHT22;33068;51.990;5.926;2023-02-18T01:38:35;9.70;99.90
47336;DHT22;33068;51.990;5.926;2023-02-18T01:41:07;9.60;99.90
47336;DHT22;33068;51.990;5.926;2023-02-18T01:43:38;9.70;99.90
47336;DHT22;33068;51.990;5.926;2023-02-18T01:46:15;9.70;99.90
47336;DHT22;33068;51.990;5.926;2023-02-18T01:48:50;9.70;99.90
47336;DHT22;33068;51.990;5.926;2023-02-18T01:51:20;9.70;99.90
47336;DHT22;33068;51.990;5.926;2023-02-18T01:53:51;9.70;99.90
47336;DHT22;33068;51.990;5.926;2023-02-18T01:56:25;9.70;99.90
47336;DHT22;33068;51.990;5.926;2023-02-18T01:58:55;9.70;99.90
47336;DHT22;33068;51.990;5.926;2023-02-18T02:01:23;9.90;99.90
47336;DHT22;33068;51.990;5.926;2023-02-18T02:03:51;9.70;99.90
47336;DHT22;33068;51.990;5.926;2023-02-18T02:06:21;9.70;99.90
47336;DHT22;33068;51.990;5.926;2023-02-18T02:08:52;9.70;99.90
47336;DHT22;33068;51.990;5.926;2023-02-18T02:11:34;9.70;99.90
47336;DHT22;33068;51.990;5.926;2023-02-18T02:14:15;9.70;99.90
47336;DHT22;33068;51.990;5.926;2023-02-18T02:16:52;9.70;99.90
47336;DHT22;33068;51.990;5.926;2023-02-18T02:23:07;9.60;99.90
47336;DHT22;33068;51.990;5.926;2023-02-18T02:32:15;9.70;99.90
47336;DHT22;33068;51.990;5.926;2023-02-18T02:34:57;9.60;99.90
47336;DHT22;33068;51.990;5.926;2023-02-18T02:37:31;9.60;99.90
47336;DHT22;33068;51.990;5.926;2023-02-18T02:40:08;9.70;99.90
47336;DHT22;33068;51.990;5.926;2023-02-18T02:42:45;9.70;99.90
47336;DHT22;33068;51.990;5.926;2023-02-18T02:45:23;9.70;99.90
47336;DHT22;33068;51.990;5.926;2023-02-18T02:47:58;9.70;99.90
47336;DHT22;33068;51.990;5.926;2023-02-18T02:50:34;9.70;99.90
47336;DHT22;33068;51.990;5.926;2023-02-18T02:53:08;9.70;99.90
47336;DHT22;33068;51.990;5.926;2023-02-18T02:55:39;9.70;99.90
47336;DHT22;33068;51.990;5.926;2023-02-18T02:58:08;9.70;99.90
47336;DHT22;33068;51.990;5.926;2023-02-18T03:00:47;9.80;99.90
47336;DHT22;33068;51.990;5.926;2023-02-18T03:03:33;9.80;99.90
47336;DHT22;33068;51.990;5.926;2023-02-18T03:09:18;9.80;99.90
47336;DHT22;33068;51.990;5.926;2023-02-18T03:11:52;9.90;99.90
47336;DHT22;33068;51.990;5.926;2023-02-18T03:14:27;9.90;99.90
47336;DHT22;33068;51.990;5.926;2023-02-18T03:17:00;9.90;99.90
47336;DHT22;33068;51.990;5.926;2023-02-18T03:19:32;10.00;99.90
47336;DHT22;33068;51.990;5.926;2023-02-18T03:22:04;10.00;99.90
47336;DHT22;33068;51.990;5.926;2023-02-18T03:24:37;10.00;99.90
47336;DHT22;33068;51.990;5.926;2023-02-18T03:27:10;10.00;99.90
47336;DHT22;33068;51.990;5.926;2023-02-18T03:29:40;10.10;99.90
47336;DHT22;33068;51.990;5.926;2023-02-18T03:32:11;9.80;99.90
47336;DHT22;33068;51.990;5.926;2023-02-18T03:34:42;10.10;99.90
47336;DHT22;33068;51.990;5.926;2023-02-18T03:37:11;10.10;99.90
47336;DHT22;33068;51.990;5.926;2023-02-18T03:39:43;10.10;99.90
47336;DHT22;33068;51.990;5.926;2023-02-18T03:42:12;10.10;99.90
47336;DHT22;33068;51.990;5.926;2023-02-18T03:44:39;10.10;99.90
47336;DHT22;33068;51.990;5.926;2023-02-18T03:47:06;10.20;99.90
47336;DHT22;33068;51.990;5.926;2023-02-18T03:49:34;10.20;99.90
47336;DHT22;33068;51.990;5.926;2023-02-18T03:52:03;10.20;99.90
47336;DHT22;33068;51.990;5.926;2023-02-18T03:54:31;10.20;99.90
47336;DHT22;33068;51.990;5.926;2023-02-18T03:57:02;10.20;99.90
47336;DHT22;33068;51.990;5.926;2023-02-18T03:59:29;10.20;99.90
47336;DHT22;33068;51.990;5.926;2023-02-18T04:01:56;10.20;99.90
47336;DHT22;33068;51.990;5.926;2023-02-18T04:04:23;10.20;99.90
47336;DHT22;33068;51.990;5.926;2023-02-18T04:06:54;10.20;99.90
47336;DHT22;33068;51.990;5.926;2023-02-18T04:09:24;10.20;99.90
47336;DHT22;33068;51.990;5.926;2023-02-18T04:11:51;10.20;99.90
47336;DHT22;33068;51.990;5.926;2023-02-18T04:14:19;10.20;99.90
47336;DHT22;33068;51.990;5.926;2023-02-18T04:16:47;10.30;99.90
47336;DHT22;33068;51.990;5.926;2023-02-18T04:19:14;10.20;99.90
47336;DHT22;33068;51.990;5.926;2023-02-18T04:21:41;10.20;99.90
47336;DHT22;33068;51.990;5.926;2023-02-18T04:24:08;10.30;99.90
47336;DHT22;33068;51.990;5.926;2023-02-18T04:26:35;10.30;99.90
47336;DHT22;33068;51.990;5.926;2023-02-18T04:29:03;10.30;99.90
47336;DHT22;33068;51.990;5.926;2023-02-18T04:31:31;10.30;99.90
47336;DHT22;33068;51.990;5.926;2023-02-18T04:33:59;10.50;99.90
47336;DHT22;33068;51.990;5.926;2023-02-18T04:36:26;10.30;99.90
47336;DHT22;33068;51.990;5.926;2023-02-18T04:38:53;10.30;99.90
47336;DHT22;33068;51.990;5.926;2023-02-18T04:41:21;10.30;99.90
47336;DHT22;33068;51.990;5.926;2023-02-18T04:43:48;10.30;99.90
47336;DHT22;33068;51.990;5.926;2023-02-18T04:46:15;10.30;99.90
47336;DHT22;33068;51.990;5.926;2023-02-18T04:48:44;10.30;99.90
47336;DHT22;33068;51.990;5.926;2023-02-18T04:51:11;10.30;99.90
47336;DHT22;33068;51.990;5.926;2023-02-18T04:53:38;10.30;99.90
47336;DHT22;33068;51.990;5.926;2023-02-18T04:56:05;10.30;99.90
47336;DHT22;33068;51.990;5.926;2023-02-18T04:58:33;10.50;99.90
47336;DHT22;33068;51.990;5.926;2023-02-18T05:01:00;10.30;99.90
47336;DHT22;33068;51.990;5.926;2023-02-18T05:03:29;10.30;99.90
47336;DHT22;33068;51.990;5.926;2023-02-18T05:05:58;10.30;99.90
47336;DHT22;33068;51.990;5.926;2023-02-18T05:08:34;10.30;99.90
47336;DHT22;33068;51.990;5.926;2023-02-18T05:11:05;10.30;99.90
47336;DHT22;33068;51.990;5.926;2023-02-18T05:13:33;10.30;99.90
47336;DHT22;33068;51.990;5.926;2023-02-18T05:16:00;10.30;99.90
47336;DHT22;33068;51.990;5.926;2023-02-18T05:18:37;10.50;99.90
47336;DHT22;33068;51.990;5.926;2023-02-18T05:21:06;10.30;99.90
47336;DHT22;33068;51.990;5.926;2023-02-18T05:23:33;10.30;99.90
47336;DHT22;33068;51.990;5.926;2023-02-18T05:26:00;10.30;99.90
47336;DHT22;33068;51.990;5.926;2023-02-18T05:28:28;10.30;99.90
47336;DHT22;33068;51.990;5.926;2023-02-18T05:30:55;10.30;99.90
47336;DHT22;33068;51.990;5.926;2023-02-18T05:33:24;10.30;99.90
47336;DHT22;33068;51.990;5.926;2023-02-18T05:35:51;10.30;99.90
47336;DHT22;33068;51.990;5.926;2023-02-18T05:38:21;10.30;99.90
47336;DHT22;33068;51.990;5.926;2023-02-18T05:40:48;10.30;99.90
47336;DHT22;33068;51.990;5.926;2023-02-18T05:43:16;10.30;99.90
47336;DHT22;33068;51.990;5.926;2023-02-18T05:45:43;10.30;99.90
47336;DHT22;33068;51.990;5.926;2023-02-18T05:48:12;10.30;99.90
47336;DHT22;33068;51.990;5.926;2023-02-18T05:50:40;10.30;99.90
47336;DHT22;33068;51.990;5.926;2023-02-18T05:53:08;10.50;99.90
47336;DHT22;33068;51.990;5.926;2023-02-18T05:55:38;10.30;99.90
47336;DHT22;33068;51.990;5.926;2023-02-18T05:58:06;10.20;99.90
47336;DHT22;33068;51.990;5.926;2023-02-18T06:00:33;9.80;99.90
47336;DHT22;33068;51.990;5.926;2023-02-18T06:03:00;10.20;99.90
47336;DHT22;33068;51.990;5.926;2023-02-18T06:05:30;10.20;99.90
47336;DHT22;33068;51.990;5.926;2023-02-18T06:07:57;10.10;99.90
47336;DHT22;33068;51.990;5.926;2023-02-18T06:10:24;10.10;99.90
47336;DHT22;33068;51.990;5.926;2023-02-18T06:12:56;10.20;99.90
47336;DHT22;33068;51.990;5.926;2023-02-18T06:15:28;10.20;99.90
47336;DHT22;33068;51.990;5.926;2023-02-18T06:17:55;10.20;99.90
47336;DHT22;33068;51.990;5.926;2023-02-18T06:20:22;10.20;99.90
47336;DHT22;33068;51.990;5.926;2023-02-18T06:22:50;10.20;99.90
47336;DHT22;33068;51.990;5.926;2023-02-18T06:25:17;10.20;99.90
47336;DHT22;33068;51.990;5.926;2023-02-18T06:27:44;10.10;99.90
47336;DHT22;33068;51.990;5.926;2023-02-18T06:30:14;10.20;99.90
47336;DHT22;33068;51.990;5.926;2023-02-18T06:32:41;10.10;99.90
47336;DHT22;33068;51.990;5.926;2023-02-18T06:35:10;10.10;99.90
47336;DHT22;33068;51.990;5.926;2023-02-18T06:37:38;10.10;99.90
47336;DHT22;33068;51.990;5.926;2023-02-18T06:40:06;10.10;99.90
47336;DHT22;33068;51.990;5.926;2023-02-18T06:42:34;10.10;99.90
47336;DHT22;33068;51.990;5.926;2023-02-18T06:45:04;10.10;99.90
47336;DHT22;33068;51.990;5.926;2023-02-18T06:47:33;10.10;99.90
47336;DHT22;33068;51.990;5.926;2023-02-18T06:50:01;10.10;99.90
47336;DHT22;33068;51.990;5.926;2023-02-18T06:52:30;10.10;99.90
47336;DHT22;33068;51.990;5.926;2023-02-18T06:55:04;10.00;99.90
47336;DHT22;33068;51.990;5.926;2023-02-18T06:57:34;10.00;99.90
47336;DHT22;33068;51.990;5.926;2023-02-18T07:00:13;10.00;99.90
47336;DHT22;33068;51.990;5.926;2023-02-18T07:02:42;10.00;99.90
47336;DHT22;33068;51.990;5.926;2023-02-18T07:05:09;9.60;99.90
47336;DHT22;33068;51.990;5.926;2023-02-18T07:07:40;10.00;99.90
47336;DHT22;33068;51.990;5.926;2023-02-18T07:10:09;10.00;99.90
47336;DHT22;33068;51.990;5.926;2023-02-18T07:12:36;10.00;99.90
47336;DHT22;33068;51.990;5.926;2023-02-18T07:15:04;10.00;99.90
47336;DHT22;33068;51.990;5.926;2023-02-18T07:17:31;10.10;99.90
47336;DHT22;33068;51.990;5.926;2023-02-18T07:20:00;10.00;99.90
47336;DHT22;33068;51.990;5.926;2023-02-18T07:22:30;10.00;99.90
47336;DHT22;33068;51.990;5.926;2023-02-18T07:24:57;10.00;99.90
47336;DHT22;33068;51.990;5.926;2023-02-18T07:27:24;9.90;99.90
47336;DHT22;33068;51.990;5.926;2023-02-18T07:29:52;10.00;99.90
47336;DHT22;33068;51.990;5.926;2023-02-18T07:32:19;9.90;99.90
47336;DHT22;33068;51.990;5.926;2023-02-18T07:34:46;10.00;99.90
47336;DHT22;33068;51.990;5.926;2023-02-18T07:37:15;10.00;99.90
47336;DHT22;33068;51.990;5.926;2023-02-18T07:39:44;10.00;99.90
47336;DHT22;33068;51.990;5.926;2023-02-18T07:42:14;9.90;99.90
47336;DHT22;33068;51.990;5.926;2023-02-18T07:44:46;10.00;99.90
47336;DHT22;33068;51.990;5.926;2023-02-18T07:47:15;10.00;99.90
47336;DHT22;33068;51.990;5.926;2023-02-18T07:49:44;10.00;99.90
47336;DHT22;33068;51.990;5.926;2023-02-18T07:52:11;10.00;99.90
47336;DHT22;33068;51.990;5.926;2023-02-18T07:54:42;10.00;99.90
47336;DHT22;33068;51.990;5.926;2023-02-18T07:57:14;10.10;99.90
47336;DHT22;33068;51.990;5.926;2023-02-18T07:59:41;10.00;99.90
47336;DHT22;33068;51.990;5.926;2023-02-18T08:02:12;10.00;99.90
47336;DHT22;33068;51.990;5.926;2023-02-18T08:04:43;9.90;99.90
47336;DHT22;33068;51.990;5.926;2023-02-18T08:07:12;9.90;99.90
47336;DHT22;33068;51.990;5.926;2023-02-18T08:09:41;9.90;99.90
47336;DHT22;33068;51.990;5.926;2023-02-18T08:12:09;9.90;99.90
47336;DHT22;33068;51.990;5.926;2023-02-18T08:14:36;9.80;99.90
47336;DHT22;33068;51.990;5.926;2023-02-18T08:17:03;9.80;99.90
47336;DHT22;33068;51.990;5.926;2023-02-18T08:19:30;9.80;99.90
47336;DHT22;33068;51.990;5.926;2023-02-18T08:22:00;9.80;99.90
47336;DHT22;33068;51.990;5.926;2023-02-18T08:24:27;9.80;99.90
47336;DHT22;33068;51.990;5.926;2023-02-18T08:26:56;9.80;99.90
47336;DHT22;33068;51.990;5.926;2023-02-18T08:29:23;9.80;99.90
47336;DHT22;33068;51.990;5.926;2023-02-18T08:31:50;9.90;99.90
47336;DHT22;33068;51.990;5.926;2023-02-18T08:34:19;9.90;99.90
47336;DHT22;33068;51.990;5.926;2023-02-18T08:36:46;10.10;99.90
47336;DHT22;33068;51.990;5.926;2023-02-18T08:39:14;9.90;99.90
47336;DHT22;33068;51.990;5.926;2023-02-18T08:41:41;9.80;99.90
47336;DHT22;33068;51.990;5.926;2023-02-18T08:44:09;9.80;99.90
47336;DHT22;33068;51.990;5.926;2023-02-18T08:46:36;10.00;99.90
47336;DHT22;33068;51.990;5.926;2023-02-18T08:49:04;9.80;99.90
47336;DHT22;33068;51.990;5.926;2023-02-18T08:51:31;9.60;99.90
47336;DHT22;33068;51.990;5.926;2023-02-18T08:53:58;9.80;99.90
47336;DHT22;33068;51.990;5.926;2023-02-18T08:56:25;9.80;99.90
47336;DHT22;33068;51.990;5.926;2023-02-18T08:58:52;9.80;99.90
47336;DHT22;33068;51.990;5.926;2023-02-18T09:01:21;10.00;99.90
47336;DHT22;33068;51.990;5.926;2023-02-18T09:03:51;9.80;99.90
47336;DHT22;33068;51.990;5.926;2023-02-18T09:06:19;9.80;99.90
47336;DHT22;33068;51.990;5.926;2023-02-18T09:08:46;9.70;99.90
47336;DHT22;33068;51.990;5.926;2023-02-18T09:11:17;9.70;99.90
47336;DHT22;33068;51.990;5.926;2023-02-18T09:13:48;9.50;99.90
47336;DHT22;33068;51.990;5.926;2023-02-18T09:16:17;9.60;99.90
47336;DHT22;33068;51.990;5.926;2023-02-18T09:18:46;9.70;99.90
47336;DHT22;33068;51.990;5.926;2023-02-18T09:21:15;9.50;99.90
47336;DHT22;33068;51.990;5.926;2023-02-18T09:23:45;9.50;99.90
47336;DHT22;33068;51.990;5.926;2023-02-18T09:26:14;9.70;99.90
47336;DHT22;33068;51.990;5.926;2023-02-18T09:28:43;9.50;99.90
47336;DHT22;33068;51.990;5.926;2023-02-18T09:31:13;9.40;99.90
47336;DHT22;33068;51.990;5.926;2023-02-18T09:33:43;9.40;99.90
47336;DHT22;33068;51.990;5.926;2023-02-18T09:36:13;9.40;99.90
47336;DHT22;33068;51.990;5.926;2023-02-18T09:38:40;9.40;99.90
47336;DHT22;33068;51.990;5.926;2023-02-18T09:41:09;9.40;99.90
47336;DHT22;33068;51.990;5.926;2023-02-18T09:43:42;9.40;99.90
47336;DHT22;33068;51.990;5.926;2023-02-18T09:46:23;9.40;99.90
47336;DHT22;33068;51.990;5.926;2023-02-18T09:48:52;9.50;99.90
47336;DHT22;33068;51.990;5.926;2023-02-18T09:51:20;9.50;99.90
47336;DHT22;33068;51.990;5.926;2023-02-18T09:53:48;9.50;99.90
47336;DHT22;33068;51.990;5.926;2023-02-18T09:56:21;9.50;99.90
47336;DHT22;33068;51.990;5.926;2023-02-18T09:58:52;9.50;99.90
47336;DHT22;33068;51.990;5.926;2023-02-18T10:01:26;9.50;99.90
47336;DHT22;33068;51.990;5.926;2023-02-18T10:03:57;9.50;99.90
47336;DHT22;33068;51.990;5.926;2023-02-18T10:06:30;9.50;99.90
47336;DHT22;33068;51.990;5.926;2023-02-18T10:09:02;9.50;99.90
47336;DHT22;33068;51.990;5.926;2023-02-18T10:11:33;9.60;99.90
47336;DHT22;33068;51.990;5.926;2023-02-18T10:14:05;9.60;99.90
47336;DHT22;33068;51.990;5.926;2023-02-18T10:16:35;9.60;99.90
47336;DHT22;33068;51.990;5.926;2023-02-18T10:19:08;9.60;99.90
47336;DHT22;33068;51.990;5.926;2023-02-18T10:21:43;9.60;99.90
47336;DHT22;33068;51.990;5.926;2023-02-18T10:24:18;9.60;99.90
47336;DHT22;33068;51.990;5.926;2023-02-18T10:26:48;9.70;99.90
47336;DHT22;33068;51.990;5.926;2023-02-18T10:29:19;9.70;99.90
47336;DHT22;33068;51.990;5.926;2023-02-18T10:31:51;9.60;99.90
47336;DHT22;33068;51.990;5.926;2023-02-18T10:34:29;9.60;99.90
47336;DHT22;33068;51.990;5.926;2023-02-18T10:37:04;9.60;99.90
47336;DHT22;33068;51.990;5.926;2023-02-18T10:39:40;9.60;99.90
47336;DHT22;33068;51.990;5.926;2023-02-18T10:42:23;9.60;99.90
47336;DHT22;33068;51.990;5.926;2023-02-18T10:45:01;9.60;99.90
47336;DHT22;33068;51.990;5.926;2023-02-18T10:47:37;9.60;99.90
47336;DHT22;33068;51.990;5.926;2023-02-18T10:50:11;9.60;99.90
47336;DHT22;33068;51.990;5.926;2023-02-18T10:52:42;9.60;99.90
47336;DHT22;33068;51.990;5.926;2023-02-18T10:55:12;9.60;99.90
47336;DHT22;33068;51.990;5.926;2023-02-18T10:57:47;9.60;99.90
47336;DHT22;33068;51.990;5.926;2023-02-18T11:00:17;9.60;99.90
47336;DHT22;33068;51.990;5.926;2023-02-18T11:02:45;9.60;99.90
47336;DHT22;33068;51.990;5.926;2023-02-18T11:05:21;9.60;99.90
47336;DHT22;33068;51.990;5.926;2023-02-18T11:07:53;9.60;99.90
47336;DHT22;33068;51.990;5.926;2023-02-18T11:10:24;9.60;99.90
47336;DHT22;33068;51.990;5.926;2023-02-18T11:12:55;9.60;99.90
47336;DHT22;33068;51.990;5.926;2023-02-18T11:15:25;9.60;99.90
47336;DHT22;33068;51.990;5.926;2023-02-18T11:17:53;9.70;99.90
47336;DHT22;33068;51.990;5.926;2023-02-18T11:20:27;9.80;99.90
47336;DHT22;33068;51.990;5.926;2023-02-18T11:23:15;9.80;99.90
47336;DHT22;33068;51.990;5.926;2023-02-18T11:25:58;9.90;99.90
47336;DHT22;33068;51.990;5.926;2023-02-18T11:28:30;10.20;99.90
47336;DHT22;33068;51.990;5.926;2023-02-18T11:31:00;10.00;99.90
47336;DHT22;33068;51.990;5.926;2023-02-18T11:33:33;10.00;99.90
47336;DHT22;33068;51.990;5.926;2023-02-18T11:36:04;10.10;99.90
47336;DHT22;33068;51.990;5.926;2023-02-18T11:38:45;10.00;99.90
47336;DHT22;33068;51.990;5.926;2023-02-18T11:41:15;10.10;99.90
47336;DHT22;33068;51.990;5.926;2023-02-18T11:43:46;10.10;99.90
47336;DHT22;33068;51.990;5.926;2023-02-18T11:46:17;10.10;99.90
47336;DHT22;33068;51.990;5.926;2023-02-18T11:48:47;10.10;99.90
47336;DHT22;33068;51.990;5.926;2023-02-18T11:51:17;10.20;99.90
47336;DHT22;33068;51.990;5.926;2023-02-18T11:54:21;10.20;99.90
47336;DHT22;33068;51.990;5.926;2023-02-18T11:56:54;10.20;99.90
47336;DHT22;33068;51.990;5.926;2023-02-18T11:59:22;10.20;99.90
47336;DHT22;33068;51.990;5.926;2023-02-18T12:01:51;10.30;99.90
47336;DHT22;33068;51.990;5.926;2023-02-18T12:04:25;10.30;99.90
47336;DHT22;33068;51.990;5.926;2023-02-18T12:07:00;10.30;99.90
47336;DHT22;33068;51.990;5.926;2023-02-18T12:09:36;10.40;99.90
47336;DHT22;33068;51.990;5.926;2023-02-18T12:12:07;10.40;99.90
47336;DHT22;33068;51.990;5.926;2023-02-18T12:14:39;10.40;99.90
47336;DHT22;33068;51.990;5.926;2023-02-18T12:17:39;10.60;99.90
47336;DHT22;33068;51.990;5.926;2023-02-18T12:20:27;10.50;99.90
47336;DHT22;33068;51.990;5.926;2023-02-18T12:23:04;10.10;99.90
47336;DHT22;33068;51.990;5.926;2023-02-18T12:25:41;10.40;99.90
47336;DHT22;33068;51.990;5.926;2023-02-18T12:28:30;10.40;99.90
47336;DHT22;33068;51.990;5.926;2023-02-18T12:31:24;10.40;99.90
47336;DHT22;33068;51.990;5.926;2023-02-18T12:34:11;10.40;99.90
47336;DHT22;33068;51.990;5.926;2023-02-18T12:36:57;10.30;99.90
47336;DHT22;33068;51.990;5.926;2023-02-18T12:39:38;10.30;99.90
47336;DHT22;33068;51.990;5.926;2023-02-18T12:42:28;10.30;99.90
47336;DHT22;33068;51.990;5.926;2023-02-18T12:45:14;10.40;99.90
47336;DHT22;33068;51.990;5.926;2023-02-18T12:48:10;10.40;99.90
47336;DHT22;33068;51.990;5.926;2023-02-18T12:51:17;10.40;99.90
47336;DHT22;33068;51.990;5.926;2023-02-18T12:54:17;10.50;99.90
47336;DHT22;33068;51.990;5.926;2023-02-18T12:57:07;10.50;99.90
47336;DHT22;33068;51.990;5.926;2023-02-18T13:05:42;10.50;99.90
47336;DHT22;33068;51.990;5.926;2023-02-18T13:08:27;10.50;99.90
47336;DHT22;33068;51.990;5.926;2023-02-18T13:11:20;10.60;99.90
47336;DHT22;33068;51.990;5.926;2023-02-18T13:13:56;10.60;99.90
47336;DHT22;33068;51.990;5.926;2023-02-18T13:16:26;10.60;99.90
47336;DHT22;33068;51.990;5.926;2023-02-18T13:19:03;10.60;99.90
47336;DHT22;33068;51.990;5.926;2023-02-18T13:21:37;10.60;99.90
47336;DHT22;33068;51.990;5.926;2023-02-18T13:24:09;10.60;99.90
47336;DHT22;33068;51.990;5.926;2023-02-18T13:26:39;10.60;99.90
47336;DHT22;33068;51.990;5.926;2023-02-18T13:29:18;10.70;99.90
47336;DHT22;33068;51.990;5.926;2023-02-18T13:31:55;10.90;99.90
47336;DHT22;33068;51.990;5.926;2023-02-18T13:34:31;11.00;99.90
47336;DHT22;33068;51.990;5.926;2023-02-18T13:37:19;10.60;99.90
47336;DHT22;33068;51.990;5.926;2023-02-18T13:39:50;11.00;99.90
47336;DHT22;33068;51.990;5.926;2023-02-18T13:42:35;11.00;99.90
47336;DHT22;33068;51.990;5.926;2023-02-18T13:45:24;10.90;99.90
47336;DHT22;33068;51.990;5.926;2023-02-18T13:47:56;10.90;99.90
47336;DHT22;33068;51.990;5.926;2023-02-18T13:50:38;10.90;99.90
47336;DHT22;33068;51.990;5.926;2023-02-18T13:53:21;10.90;99.90
47336;DHT22;33068;51.990;5.926;2023-02-18T13:55:57;10.90;99.90
47336;DHT22;33068;51.990;5.926;2023-02-18T13:58:36;10.90;99.90
47336;DHT22;33068;51.990;5.926;2023-02-18T14:01:11;10.60;99.90
47336;DHT22;33068;51.990;5.926;2023-02-18T14:04:00;10.90;99.90
47336;DHT22;33068;51.990;5.926;2023-02-18T14:06:31;11.00;99.90
47336;DHT22;33068;51.990;5.926;2023-02-18T14:09:33;11.00;99.90
47336;DHT22;33068;51.990;5.926;2023-02-18T14:12:16;10.90;99.90
47336;DHT22;33068;51.990;5.926;2023-02-18T14:14:53;10.90;99.90
47336;DHT22;33068;51.990;5.926;2023-02-18T14:17:40;10.80;99.90
47336;DHT22;33068;51.990;5.926;2023-02-18T14:20:43;10.90;99.90
47336;DHT22;33068;51.990;5.926;2023-02-18T14:23:43;10.90;99.90
47336;DHT22;33068;51.990;5.926;2023-02-18T14:26:24;10.90;99.90
47336;DHT22;33068;51.990;5.926;2023-02-18T14:28:55;10.90;99.90
47336;DHT22;33068;51.990;5.926;2023-02-18T14:31:39;10.90;99.90
47336;DHT22;33068;51.990;5.926;2023-02-18T14:40:26;10.90;99.90
47336;DHT22;33068;51.990;5.926;2023-02-18T14:43:03;10.80;99.90
47336;DHT22;33068;51.990;5.926;2023-02-18T14:45:59;11.10;99.90
47336;DHT22;33068;51.990;5.926;2023-02-18T14:48:50;10.80;99.90
47336;DHT22;33068;51.990;5.926;2023-02-18T14:51:22;10.80;99.90
47336;DHT22;33068;51.990;5.926;2023-02-18T14:53:50;10.40;99.90
47336;DHT22;33068;51.990;5.926;2023-02-18T14:56:20;10.80;99.90
47336;DHT22;33068;51.990;5.926;2023-02-18T14:58:51;10.90;99.90
47336;DHT22;33068;51.990;5.926;2023-02-18T15:01:22;10.90;99.90
47336;DHT22;33068;51.990;5.926;2023-02-18T15:03:52;10.90;99.90
47336;DHT22;33068;51.990;5.926;2023-02-18T15:06:27;11.00;99.90
47336;DHT22;33068;51.990;5.926;2023-02-18T15:08:55;11.00;99.90
47336;DHT22;33068;51.990;5.926;2023-02-18T15:11:29;10.90;99.90
47336;DHT22;33068;51.990;5.926;2023-02-18T15:13:59;11.00;99.90
47336;DHT22;33068;51.990;5.926;2023-02-18T15:16:29;10.90;99.90
47336;DHT22;33068;51.990;5.926;2023-02-18T15:19:00;11.00;99.90
47336;DHT22;33068;51.990;5.926;2023-02-18T15:21:29;11.00;99.90
47336;DHT22;33068;51.990;5.926;2023-02-18T15:24:02;11.00;99.90
47336;DHT22;33068;51.990;5.926;2023-02-18T15:26:33;11.00;99.90
47336;DHT22;33068;51.990;5.926;2023-02-18T15:29:04;10.90;99.90
47336;DHT22;33068;51.990;5.926;2023-02-18T15:31:37;10.90;99.90
47336;DHT22;33068;51.990;5.926;2023-02-18T15:34:29;10.90;99.90
47336;DHT22;33068;51.990;5.926;2023-02-18T15:36:58;11.00;99.90
47336;DHT22;33068;51.990;5.926;2023-02-18T15:39:26;10.90;99.90
47336;DHT22;33068;51.990;5.926;2023-02-18T15:41:57;10.90;99.90
47336;DHT22;33068;51.990;5.926;2023-02-18T15:44:29;10.90;99.90
47336;DHT22;33068;51.990;5.926;2023-02-18T15:47:05;10.90;99.90
47336;DHT22;33068;51.990;5.926;2023-02-18T15:49:37;11.00;99.90
47336;DHT22;33068;51.990;5.926;2023-02-18T15:55:01;11.00;99.90
47336;DHT22;33068;51.990;5.926;2023-02-18T15:58:04;11.00;99.90
47336;DHT22;33068;51.990;5.926;2023-02-18T16:00:55;11.00;99.90
47336;DHT22;33068;51.990;5.926;2023-02-18T16:03:25;11.00;99.90
47336;DHT22;33068;51.990;5.926;2023-02-18T16:06:22;11.00;99.90
47336;DHT22;33068;51.990;5.926;2023-02-18T16:08:59;11.10;99.90
47336;DHT22;33068;51.990;5.926;2023-02-18T16:11:36;10.90;99.90
47336;DHT22;33068;51.990;5.926;2023-02-18T16:14:27;11.00;99.90
47336;DHT22;33068;51.990;5.926;2023-02-18T16:17:34;11.00;99.90
47336;DHT22;33068;51.990;5.926;2023-02-18T16:20:21;10.90;99.90
47336;DHT22;33068;51.990;5.926;2023-02-18T16:22:50;11.00;99.90
47336;DHT22;33068;51.990;5.926;2023-02-18T16:25:26;10.90;99.90
47336;DHT22;33068;51.990;5.926;2023-02-18T16:31:28;10.90;99.90
47336;DHT22;33068;51.990;5.926;2023-02-18T16:34:04;10.90;99.90
47336;DHT22;33068;51.990;5.926;2023-02-18T16:36:53;10.80;99.90
47336;DHT22;33068;51.990;5.926;2023-02-18T16:39:38;10.80;99.90
47336;DHT22;33068;51.990;5.926;2023-02-18T16:42:08;10.80;99.90
47336;DHT22;33068;51.990;5.926;2023-02-18T16:44:36;10.80;99.90